createdAt,value
2023-02-11T00:01:25.618Z,100464.64
2023-02-11T00:03:53.063Z,100452.30
2023-02-11T00:06:19.958Z,100452.36
2023-02-11T00:08:46.912Z,100453.02
2023-02-11T00:11:16.922Z,100450.16
2023-02-11T00:13:44.939Z,100443.81
2023-02-11T00:16:19.690Z,100432.55
2023-02-11T00:18:46.839Z,100427.63
2023-02-11T00:21:18.938Z,100427.65
2023-02-11T00:23:45.845Z,100434.90
2023-02-11T00:26:24.670Z,100428.50
2023-02-11T00:28:52.744Z,100429.38
2023-02-11T00:31:21.211Z,100425.41
2023-02-11T00:33:48.424Z,100424.62
2023-02-11T00:36:22.337Z,100419.94
2023-02-11T00:38:50.658Z,100416.09
2023-02-11T00:41:18.369Z,100412.79
2023-02-11T00:43:45.244Z,100418.31
2023-02-11T00:46:12.745Z,100419.55
2023-02-11T00:48:41.004Z,100412.59
2023-02-11T00:51:08.136Z,100414.77
2023-02-11T00:53:35.702Z,100405.69
2023-02-11T00:56:02.981Z,100399.86
2023-02-11T00:58:30.259Z,100397.50
2023-02-11T01:00:57.160Z,100398.85
2023-02-11T01:03:24.714Z,100398.92
2023-02-11T01:05:51.754Z,100389.09
2023-02-11T01:08:18.983Z,100387.68
2023-02-11T01:10:53.692Z,100384.52
2023-02-11T01:13:21.045Z,100387.18
2023-02-11T01:15:47.868Z,100380.99
2023-02-11T01:18:14.764Z,100382.70
2023-02-11T01:20:42.337Z,100379.52
2023-02-11T01:23:09.055Z,100374.81
2023-02-11T01:25:36.331Z,100369.25
2023-02-11T01:28:04.181Z,100357.45
2023-02-11T01:30:31.319Z,100351.24
2023-02-11T01:32:58.026Z,100347.60
2023-02-11T01:35:25.128Z,100345.31
2023-02-11T01:37:52.047Z,100334.86
2023-02-11T01:40:18.787Z,100328.23
2023-02-11T01:42:46.386Z,100319.30
2023-02-11T01:45:52.062Z,100307.92
2023-02-11T01:48:25.133Z,100297.94
2023-02-11T01:50:58.745Z,100301.46
2023-02-11T01:53:45.660Z,100302.30
2023-02-11T01:56:31.253Z,100293.30
2023-02-11T01:59:05.576Z,100274.70
2023-02-11T02:03:07.023Z,100266.09
2023-02-11T02:05:45.993Z,100259.82
2023-02-11T02:08:31.466Z,100261.74
2023-02-11T02:11:00.280Z,100259.23
2023-02-11T02:13:30.123Z,100260.00
2023-02-11T02:16:02.813Z,100258.23
2023-02-11T02:18:40.374Z,100258.23
2023-02-11T02:21:25.473Z,100255.04
2023-02-11T02:24:29.439Z,100249.18
2023-02-11T02:27:25.232Z,100241.77
2023-02-11T02:30:22.596Z,100236.73
2023-02-11T02:32:57.760Z,100236.98
2023-02-11T02:35:39.771Z,100231.20
2023-02-11T02:38:13.095Z,100223.26
2023-02-11T02:40:56.231Z,100219.11
2023-02-11T02:43:25.940Z,100208.98
2023-02-11T02:45:53.300Z,100203.12
2023-02-11T02:48:27.150Z,100194.08
2023-02-11T02:51:17.008Z,100188.19
2023-02-11T02:54:25.173Z,100173.38
2023-02-11T02:57:13.575Z,100156.54
2023-02-11T02:59:59.115Z,100143.05
2023-02-11T03:02:39.802Z,100123.73
2023-02-11T03:05:25.286Z,100117.29
2023-02-11T03:08:07.746Z,100108.64
2023-02-11T03:10:39.795Z,100106.15
2023-02-11T03:13:07.521Z,100112.40
2023-02-11T03:15:41.342Z,100114.04
2023-02-11T03:18:11.098Z,100125.09
2023-02-11T03:20:41.377Z,100134.61
2023-02-11T03:23:17.726Z,100129.74
2023-02-11T03:25:51.410Z,100125.80
2023-02-11T03:28:26.761Z,100129.89
2023-02-11T03:31:08.280Z,100150.23
2023-02-11T03:33:41.400Z,100172.46
2023-02-11T03:36:15.236Z,100174.65
2023-02-11T03:38:48.726Z,100174.23
2023-02-11T03:41:19.359Z,100189.30
2023-02-11T03:43:50.647Z,100202.31
2023-02-11T03:46:20.529Z,100191.08
2023-02-11T03:48:55.848Z,100183.21
2023-02-11T03:51:24.760Z,100164.02
2023-02-11T03:53:55.362Z,100140.90
2023-02-11T03:56:27.518Z,100120.37
2023-02-11T03:58:54.439Z,100070.31
2023-02-11T04:01:22.152Z,100037.16
2023-02-11T04:03:49.350Z,100041.17
2023-02-11T04:06:16.190Z,100042.27
2023-02-11T04:08:43.138Z,100038.98
2023-02-11T04:11:09.983Z,100057.17
2023-02-11T04:13:36.777Z,100074.77
2023-02-11T04:16:03.571Z,100082.08
2023-02-11T04:18:31.999Z,100090.05
2023-02-11T04:20:58.899Z,100092.55
2023-02-11T04:23:25.620Z,100093.87
2023-02-11T04:25:52.690Z,100090.94
2023-02-11T04:28:19.707Z,100069.27
2023-02-11T04:30:46.509Z,100046.67
2023-02-11T04:33:13.971Z,100046.31
2023-02-11T04:35:40.709Z,100031.92
2023-02-11T04:38:07.381Z,100028.08
2023-02-11T04:40:34.257Z,100034.95
2023-02-11T04:43:01.046Z,100042.67
2023-02-11T04:45:27.650Z,100043.73
2023-02-11T04:47:54.552Z,100040.70
2023-02-11T04:50:21.438Z,100040.58
2023-02-11T04:52:48.246Z,100035.95
2023-02-11T04:55:15.185Z,100018.80
2023-02-11T04:57:42.353Z,100010.18
2023-02-11T05:00:09.623Z,100012.61
2023-02-11T05:02:36.490Z,100009.39
2023-02-11T05:05:03.714Z,100016.06
2023-02-11T05:07:30.712Z,100018.77
2023-02-11T05:09:57.629Z,100016.02
2023-02-11T05:12:24.392Z,100011.13
2023-02-11T05:14:51.020Z,100006.58
2023-02-11T05:17:18.067Z,100002.83
2023-02-11T05:19:44.904Z,100001.41
2023-02-11T05:22:11.636Z,99992.27
2023-02-11T05:24:38.593Z,99982.24
2023-02-11T05:27:05.330Z,99984.91
2023-02-11T05:29:32.041Z,99979.05
2023-02-11T05:31:59.594Z,99986.14
2023-02-11T05:34:26.484Z,99985.48
2023-02-11T05:36:53.119Z,99985.05
2023-02-11T05:39:19.836Z,99978.65
2023-02-11T05:41:46.676Z,99979.39
2023-02-11T05:44:13.314Z,99970.98
2023-02-11T05:46:40.237Z,99978.66
2023-02-11T05:49:07.078Z,99979.23
2023-02-11T05:51:33.670Z,99988.39
2023-02-11T05:54:00.460Z,99989.73
2023-02-11T05:56:27.279Z,99989.36
2023-02-11T05:58:53.880Z,99987.08
2023-02-11T06:01:20.722Z,99983.58
2023-02-11T06:03:49.386Z,99986.63
2023-02-11T06:06:16.363Z,99986.35
2023-02-11T06:08:43.124Z,99985.60
2023-02-11T06:11:09.931Z,99991.44
2023-02-11T06:13:36.543Z,99983.48
2023-02-11T06:16:03.513Z,99979.11
2023-02-11T06:18:32.294Z,99983.98
2023-02-11T06:20:59.392Z,99996.55
2023-02-11T06:23:28.481Z,99989.63
2023-02-11T06:26:01.708Z,99977.27
2023-02-11T06:28:30.711Z,99977.45
2023-02-11T06:30:58.599Z,99963.94
2023-02-11T06:33:25.417Z,99965.10
2023-02-11T06:35:52.421Z,99962.20
2023-02-11T06:38:19.424Z,99959.93
2023-02-11T06:40:49.453Z,99955.47
2023-02-11T06:43:16.468Z,99952.86
2023-02-11T06:45:43.543Z,99952.25
2023-02-11T06:48:10.371Z,99953.64
2023-02-11T06:50:37.594Z,99948.64
2023-02-11T06:53:04.587Z,99945.04
2023-02-11T06:55:31.410Z,99932.80
2023-02-11T06:57:58.177Z,99930.16
2023-02-11T07:00:26.264Z,99924.59
2023-02-11T07:02:53.092Z,99925.61
2023-02-11T07:05:20.347Z,99925.16
2023-02-11T07:07:47.129Z,99932.55
2023-02-11T07:10:13.994Z,99931.84
2023-02-11T07:12:40.850Z,99927.98
2023-02-11T07:15:07.804Z,99926.86
2023-02-11T07:17:35.342Z,99934.76
2023-02-11T07:20:02.837Z,99934.64
2023-02-11T07:22:29.706Z,99938.11
2023-02-11T07:24:56.517Z,99937.14
2023-02-11T07:27:23.161Z,99933.75
2023-02-11T07:29:49.909Z,99930.62
2023-02-11T07:32:16.900Z,99921.94
2023-02-11T07:34:43.615Z,99910.48
2023-02-11T07:37:10.447Z,99892.83
2023-02-11T07:39:37.184Z,99884.95
2023-02-11T07:42:04.313Z,99889.53
2023-02-11T07:44:32.689Z,99884.05
2023-02-11T07:46:59.840Z,99889.64
2023-02-11T07:49:26.578Z,99888.58
2023-02-11T07:51:53.264Z,99880.65
2023-02-11T07:54:20.474Z,99880.91
2023-02-11T07:56:47.240Z,99869.38
2023-02-11T07:59:13.841Z,99870.77
2023-02-11T08:01:40.740Z,99869.39
2023-02-11T08:04:07.449Z,99881.13
2023-02-11T08:06:34.796Z,99875.96
2023-02-11T08:09:07.173Z,99875.63
2023-02-11T08:11:34.317Z,99874.21
2023-02-11T08:14:01.306Z,99870.36
2023-02-11T08:16:31.354Z,99875.16
2023-02-11T08:19:00.685Z,99882.56
2023-02-11T08:21:27.939Z,99896.63
2023-02-11T08:23:55.573Z,99903.28
2023-02-11T08:26:28.746Z,99899.90
2023-02-11T08:28:57.259Z,99908.71
2023-02-11T08:31:33.881Z,99906.16
2023-02-11T08:34:01.807Z,99911.24
2023-02-11T08:36:31.013Z,99914.70
2023-02-11T08:39:16.126Z,99915.21
2023-02-11T08:41:50.092Z,99902.10
2023-02-11T08:44:18.935Z,99893.78
2023-02-11T08:46:46.565Z,99891.61
2023-02-11T08:49:13.886Z,99886.30
2023-02-11T08:51:40.977Z,99881.80
2023-02-11T08:54:09.282Z,99883.77
2023-02-11T08:56:38.057Z,99880.40
2023-02-11T08:59:05.317Z,99877.91
2023-02-11T09:01:32.992Z,99883.84
2023-02-11T09:04:00.466Z,99890.16
2023-02-11T09:06:28.005Z,99887.47
2023-02-11T09:08:56.534Z,99880.13
2023-02-11T09:11:30.120Z,99881.13
2023-02-11T09:13:57.090Z,99877.70
2023-02-11T09:16:27.238Z,99870.23
2023-02-11T09:18:56.795Z,99867.46
2023-02-11T09:21:23.885Z,99866.45
2023-02-11T09:23:50.954Z,99862.06
2023-02-11T09:26:23.756Z,99856.80
2023-02-11T09:28:51.616Z,99851.36
2023-02-11T09:31:22.203Z,99844.48
2023-02-11T09:33:51.470Z,99840.42
2023-02-11T09:36:24.873Z,99834.16
2023-02-11T09:38:52.894Z,99820.91
2023-02-11T09:41:22.751Z,99808.23
2023-02-11T09:43:52.836Z,99800.63
2023-02-11T09:46:20.918Z,99794.97
2023-02-11T09:48:51.144Z,99795.83
2023-02-11T09:51:46.763Z,99799.88
2023-02-11T09:54:37.317Z,99780.77
2023-02-11T09:57:06.146Z,99776.77
2023-02-11T09:59:33.389Z,99766.16
2023-02-11T10:02:39.491Z,99761.34
2023-02-11T10:05:15.768Z,99767.42
2023-02-11T10:07:42.744Z,99770.13
2023-02-11T10:10:32.166Z,99769.41
2023-02-11T10:13:17.820Z,99775.65
2023-02-11T10:16:07.676Z,99761.65
2023-02-11T10:18:53.067Z,99763.85
2023-02-11T10:21:36.761Z,99765.80
2023-02-11T10:24:11.967Z,99759.58
2023-02-11T10:26:40.065Z,99744.78
2023-02-11T10:29:46.193Z,99750.67
2023-02-11T10:32:42.285Z,99764.94
2023-02-11T10:35:18.756Z,99768.53
2023-02-11T10:37:45.731Z,99762.85
2023-02-11T10:40:25.528Z,99764.55
2023-02-11T10:42:58.473Z,99772.64
2023-02-11T10:45:32.100Z,99782.34
2023-02-11T10:48:00.922Z,99777.62
2023-02-11T10:50:33.000Z,99781.78
2023-02-11T10:53:19.833Z,99787.64
2023-02-11T10:55:55.495Z,99779.64
2023-02-11T10:58:39.884Z,99769.80
2023-02-11T11:01:22.465Z,99768.13
2023-02-11T11:03:52.008Z,99765.48
2023-02-11T11:06:31.357Z,99771.88
2023-02-11T11:08:58.248Z,99767.69
2023-02-11T11:11:26.068Z,99759.54
2023-02-11T11:13:52.768Z,99743.33
2023-02-11T11:16:25.351Z,99755.03
2023-02-11T11:19:06.036Z,99751.73
2023-02-11T11:21:45.107Z,99751.83
2023-02-11T11:24:24.558Z,99748.34
2023-02-11T11:26:54.224Z,99744.61
2023-02-11T11:29:30.067Z,99742.09
2023-02-11T11:32:11.202Z,99760.65
2023-02-11T11:34:41.430Z,99754.67
2023-02-11T11:37:18.292Z,99736.79
2023-02-11T11:40:03.508Z,99718.01
2023-02-11T11:42:32.768Z,99723.86
2023-02-11T11:45:14.762Z,99713.32
2023-02-11T11:47:49.840Z,99715.75
2023-02-11T11:50:32.260Z,99731.38
2023-02-11T11:53:14.316Z,99727.63
2023-02-11T11:55:45.061Z,99711.29
2023-02-11T11:58:17.299Z,99706.90
2023-02-11T12:00:55.930Z,99698.09
2023-02-11T12:03:50.801Z,99693.97
2023-02-11T12:06:39.486Z,99678.98
2023-02-11T12:09:15.291Z,99646.81
2023-02-11T12:12:04.163Z,99608.58
2023-02-11T12:14:34.432Z,99628.26
2023-02-11T12:17:23.572Z,99638.30
2023-02-11T12:20:13.343Z,99616.70
2023-02-11T12:22:58.199Z,99647.59
2023-02-11T12:25:26.704Z,99653.95
2023-02-11T12:28:06.312Z,99668.91
2023-02-11T12:31:03.477Z,99677.13
2023-02-11T12:33:49.094Z,99689.44
2023-02-11T12:36:33.929Z,99709.28
2023-02-11T12:39:27.113Z,99709.20
2023-02-11T12:42:34.798Z,99720.17
2023-02-11T12:45:20.641Z,99712.17
2023-02-11T12:48:06.869Z,99725.80
2023-02-11T12:50:56.675Z,99724.00
2023-02-11T12:53:55.098Z,99719.70
2023-02-11T12:56:32.297Z,99726.05
2023-02-11T12:59:02.289Z,99721.45
2023-02-11T13:01:34.741Z,99722.23
2023-02-11T13:04:15.701Z,99718.10
2023-02-11T13:06:52.287Z,99713.80
2023-02-11T13:09:27.290Z,99703.83
2023-02-11T13:12:22.916Z,99701.65
2023-02-11T13:14:53.589Z,99688.48
2023-02-11T13:17:47.147Z,99672.60
2023-02-11T13:20:25.331Z,99676.84
2023-02-11T13:23:03.507Z,99688.91
2023-02-11T13:25:41.087Z,99691.60
2023-02-11T13:28:27.636Z,99697.97
2023-02-11T13:31:02.109Z,99702.73
2023-02-11T13:33:42.465Z,99705.88
2023-02-11T13:36:13.181Z,99706.02
2023-02-11T13:38:40.104Z,99709.30
2023-02-11T13:41:17.675Z,99715.41
2023-02-11T13:43:56.107Z,99713.57
2023-02-11T13:46:23.283Z,99705.10
2023-02-11T13:48:52.399Z,99715.50
2023-02-11T13:51:41.561Z,99714.73
2023-02-11T13:54:21.016Z,99715.73
2023-02-11T13:57:20.474Z,99717.92
2023-02-11T13:59:53.422Z,99724.05
2023-02-11T14:02:43.745Z,99725.89
2023-02-11T14:05:48.334Z,99724.08
2023-02-11T14:08:39.425Z,99725.77
2023-02-11T14:11:14.076Z,99730.21
2023-02-11T14:13:46.988Z,99722.40
2023-02-11T14:16:20.284Z,99728.16
2023-02-11T14:18:55.052Z,99726.13
2023-02-11T14:21:28.855Z,99720.69
2023-02-11T14:24:01.788Z,99721.80
2023-02-11T14:26:40.618Z,99717.48
2023-02-11T14:29:30.850Z,99722.27
2023-02-11T14:32:06.283Z,99708.15
2023-02-11T14:34:50.783Z,99713.77
2023-02-11T14:37:23.265Z,99717.67
2023-02-11T14:40:14.773Z,99714.79
2023-02-11T14:42:41.805Z,99713.03
2023-02-11T14:45:14.203Z,99713.72
2023-02-11T14:47:46.464Z,99716.15
2023-02-11T14:50:26.865Z,99712.13
2023-02-11T14:52:54.772Z,99715.50
2023-02-11T14:55:28.764Z,99709.74
2023-02-11T14:58:16.114Z,99707.14
2023-02-11T15:01:05.033Z,99710.34
2023-02-11T15:03:38.457Z,99711.46
2023-02-11T15:06:09.832Z,99715.48
2023-02-11T15:08:41.667Z,99719.77
2023-02-11T15:11:12.790Z,99718.00
2023-02-11T15:13:46.769Z,99719.83
2023-02-11T15:16:19.067Z,99720.59
2023-02-11T15:18:54.905Z,99721.73
2023-02-11T15:21:25.627Z,99718.30
2023-02-11T15:24:07.933Z,99719.39
2023-02-11T15:26:34.738Z,99723.20
2023-02-11T15:29:01.485Z,99721.36
2023-02-11T15:31:28.823Z,99725.81
2023-02-11T15:34:05.911Z,99723.58
2023-02-11T15:36:35.693Z,99725.15
2023-02-11T15:39:29.842Z,99728.37
2023-02-11T15:41:56.954Z,99726.85
2023-02-11T15:44:29.196Z,99730.27
2023-02-11T15:46:56.277Z,99733.52
2023-02-11T15:49:24.683Z,99725.22
2023-02-11T15:51:56.279Z,99726.11
2023-02-11T15:54:27.665Z,99727.70
2023-02-11T15:57:02.138Z,99733.05
2023-02-11T15:59:49.654Z,99739.07
2023-02-11T16:02:21.767Z,99732.80
2023-02-11T16:04:56.197Z,99735.92
2023-02-11T16:07:43.663Z,99742.18
2023-02-11T16:10:28.789Z,99743.29
2023-02-11T16:13:07.886Z,99748.48
2023-02-11T16:15:37.596Z,99752.42
2023-02-11T16:18:30.992Z,99750.77
2023-02-11T16:21:05.850Z,99747.11
2023-02-11T16:23:36.530Z,99755.45
2023-02-11T16:26:11.663Z,99755.83
2023-02-11T16:28:47.264Z,99757.68
2023-02-11T16:31:14.335Z,99744.85
2023-02-11T16:33:41.716Z,99742.09
2023-02-11T16:36:14.769Z,99746.17
2023-02-11T16:38:41.844Z,99746.66
2023-02-11T16:41:11.189Z,99757.09
2023-02-11T16:43:38.564Z,99754.73
2023-02-11T16:46:05.640Z,99750.27
2023-02-11T16:48:32.785Z,99750.73
2023-02-11T16:50:59.592Z,99755.90
2023-02-11T16:53:26.479Z,99756.45
2023-02-11T16:55:54.036Z,99763.13
2023-02-11T16:58:20.940Z,99766.61
2023-02-11T17:00:48.046Z,99766.50
2023-02-11T17:03:20.472Z,99761.61
2023-02-11T17:05:55.326Z,99771.91
2023-02-11T17:08:22.717Z,99766.13
2023-02-11T17:10:50.122Z,99773.95
2023-02-11T17:13:17.146Z,99776.08
2023-02-11T17:15:44.000Z,99774.98
2023-02-11T17:18:17.928Z,99775.41
2023-02-11T17:20:44.838Z,99778.92
2023-02-11T17:23:11.558Z,99778.12
2023-02-11T17:25:38.273Z,99778.64
2023-02-11T17:28:05.411Z,99784.31
2023-02-11T17:30:32.467Z,99789.64
2023-02-11T17:32:59.274Z,99796.58
2023-02-11T17:35:26.340Z,99801.23
2023-02-11T17:37:53.798Z,99800.33
2023-02-11T17:40:20.779Z,99806.50
2023-02-11T17:42:47.605Z,99804.65
2023-02-11T17:45:14.637Z,99811.80
2023-02-11T17:47:41.330Z,99818.90
2023-02-11T17:50:08.868Z,99824.64
2023-02-11T17:52:36.109Z,99824.63
2023-02-11T17:55:03.545Z,99821.70
2023-02-11T17:57:30.922Z,99825.64
2023-02-11T17:59:57.729Z,99830.91
2023-02-11T18:02:24.512Z,99830.80
2023-02-11T18:04:51.949Z,99835.54
2023-02-11T18:07:19.302Z,99841.48
2023-02-11T18:09:45.984Z,99841.89
2023-02-11T18:12:12.950Z,99847.76
2023-02-11T18:14:40.159Z,99844.23
2023-02-11T18:17:07.038Z,99846.66
2023-02-11T18:19:36.067Z,99844.31
2023-02-11T18:22:03.657Z,99844.82
2023-02-11T18:24:30.702Z,99846.52
2023-02-11T18:26:57.926Z,99849.41
2023-02-11T18:29:25.041Z,99851.01
2023-02-11T18:31:56.078Z,99850.39
2023-02-11T18:34:23.010Z,99852.47
2023-02-11T18:36:50.823Z,99853.70
2023-02-11T18:39:19.635Z,99854.78
2023-02-11T18:41:46.794Z,99850.92
2023-02-11T18:44:20.328Z,99859.27
2023-02-11T18:46:47.068Z,99861.46
2023-02-11T18:49:14.278Z,99864.91
2023-02-11T18:51:41.043Z,99867.98
2023-02-11T18:54:07.786Z,99861.15
2023-02-11T18:56:34.794Z,99863.71
2023-02-11T18:59:01.879Z,99867.79
2023-02-11T19:01:30.494Z,99873.38
2023-02-11T19:03:59.307Z,99871.40
2023-02-11T19:06:28.979Z,99862.89
2023-02-11T19:08:59.820Z,99872.45
2023-02-11T19:11:48.616Z,99876.14
2023-02-11T19:14:27.570Z,99881.08
2023-02-11T19:16:58.223Z,99881.29
2023-02-11T19:19:28.711Z,99888.42
2023-02-11T19:21:57.653Z,99886.80
2023-02-11T19:24:26.302Z,99884.20
2023-02-11T19:26:56.257Z,99892.33
2023-02-11T19:29:23.398Z,99896.00
2023-02-11T19:31:51.956Z,99906.37
2023-02-11T19:34:19.595Z,99912.38
2023-02-11T19:36:46.909Z,99913.29
2023-02-11T19:39:13.921Z,99917.14
2023-02-11T19:41:40.697Z,99913.81
2023-02-11T19:44:07.786Z,99918.29
2023-02-11T19:46:37.527Z,99916.11
2023-02-11T19:49:04.853Z,99915.83
2023-02-11T19:51:38.483Z,99916.72
2023-02-11T19:54:06.528Z,99922.02
2023-02-11T19:56:33.863Z,99922.02
2023-02-11T19:59:04.081Z,99928.40
2023-02-11T20:01:30.944Z,99934.52
2023-02-11T20:03:57.775Z,99936.27
2023-02-11T20:06:27.553Z,99943.34
2023-02-11T20:08:58.298Z,99942.70
2023-02-11T20:11:27.395Z,99946.11
2023-02-11T20:13:55.006Z,99950.63
2023-02-11T20:16:27.005Z,99950.59
2023-02-11T20:19:01.040Z,99962.70
2023-02-11T20:21:30.273Z,99963.67
2023-02-11T20:23:58.040Z,99959.90
2023-02-11T20:26:27.954Z,99963.25
2023-02-11T20:28:56.293Z,99959.06
2023-02-11T20:31:24.213Z,99957.58
2023-02-11T20:33:51.649Z,99957.33
2023-02-11T20:36:22.556Z,99955.77
2023-02-11T20:38:50.081Z,99961.78
2023-02-11T20:41:20.521Z,99974.67
2023-02-11T20:43:51.309Z,99984.26
2023-02-11T20:46:21.493Z,99989.02
2023-02-11T20:48:49.238Z,99989.75
2023-02-11T20:51:22.265Z,99989.94
2023-02-11T20:53:50.706Z,99994.98
2023-02-11T20:56:20.702Z,99998.02
2023-02-11T20:58:48.317Z,100006.27
2023-02-11T21:01:27.031Z,100013.00
2023-02-11T21:04:03.733Z,100016.81
2023-02-11T21:06:37.203Z,100022.76
2023-02-11T21:09:05.961Z,100033.04
2023-02-11T21:11:33.338Z,100035.33
2023-02-11T21:14:00.598Z,100045.89
2023-02-11T21:16:27.474Z,100048.10
2023-02-11T21:18:54.877Z,100049.45
2023-02-11T21:21:22.171Z,100054.96
2023-02-11T21:23:49.473Z,100062.65
2023-02-11T21:26:16.653Z,100063.13
2023-02-11T21:28:43.844Z,100065.29
2023-02-11T21:31:21.983Z,100069.77
2023-02-11T21:33:50.242Z,100068.98
2023-02-11T21:36:17.369Z,100073.80
2023-02-11T21:38:44.334Z,100075.23
2023-02-11T21:41:11.885Z,100076.81
2023-02-11T21:43:38.604Z,100084.53
2023-02-11T21:46:10.132Z,100088.86
2023-02-11T21:48:37.657Z,100090.19
2023-02-11T21:51:10.594Z,100091.42
2023-02-11T21:53:37.312Z,100087.92
2023-02-11T21:56:10.412Z,100088.63
2023-02-11T21:58:37.591Z,100089.10
2023-02-11T22:01:18.890Z,100090.92
2023-02-11T22:03:46.501Z,100096.25
2023-02-11T22:06:16.116Z,100100.88
2023-02-11T22:08:43.174Z,100106.72
2023-02-11T22:11:12.102Z,100109.23
2023-02-11T22:13:39.638Z,100112.00
2023-02-11T22:16:09.464Z,100118.17
2023-02-11T22:18:36.995Z,100128.34
2023-02-11T22:21:06.937Z,100135.21
2023-02-11T22:23:34.658Z,100137.20
2023-02-11T22:26:07.634Z,100142.55
2023-02-11T22:28:36.427Z,100149.34
2023-02-11T22:31:03.358Z,100151.04
2023-02-11T22:33:30.101Z,100153.16
2023-02-11T22:36:01.280Z,100157.09
2023-02-11T22:38:30.684Z,100158.94
2023-02-11T22:40:59.736Z,100159.89
2023-02-11T22:43:27.852Z,100161.36
2023-02-11T22:45:55.817Z,100169.35
2023-02-11T22:48:23.261Z,100168.29
2023-02-11T22:50:50.069Z,100172.64
2023-02-11T22:53:16.831Z,100171.06
2023-02-11T22:55:43.775Z,100173.94
2023-02-11T22:58:10.876Z,100178.90
2023-02-11T23:00:40.559Z,100176.32
2023-02-11T23:03:08.284Z,100177.95
2023-02-11T23:05:41.971Z,100180.63
2023-02-11T23:08:10.901Z,100184.89
2023-02-11T23:10:39.021Z,100185.92
2023-02-11T23:13:07.228Z,100184.89
2023-02-11T23:15:37.870Z,100187.75
2023-02-11T23:18:04.889Z,100180.88
2023-02-11T23:20:34.401Z,100186.03
2023-02-11T23:23:01.645Z,100183.88
2023-02-11T23:25:29.011Z,100186.87
2023-02-11T23:27:55.996Z,100184.73
2023-02-11T23:30:23.123Z,100188.94
2023-02-11T23:32:51.437Z,100195.38
2023-02-11T23:35:24.414Z,100200.91
2023-02-11T23:37:52.870Z,100201.42
2023-02-11T23:40:20.886Z,100207.98
2023-02-11T23:42:48.496Z,100209.63
2023-02-11T23:45:15.357Z,100209.58
2023-02-11T23:47:42.097Z,100211.21
2023-02-11T23:50:10.180Z,100212.05
2023-02-11T23:52:37.168Z,100219.36
2023-02-11T23:55:04.894Z,100224.35
2023-02-11T23:57:32.592Z,100232.54
